sensor_id;sensor_type;location;lat;lon;timestamp;P1;durP1;ratioP1;P2;durP2;ratioP2
10657;SDS011;5377;43.276;26.930;2023-09-19T00:01:50;6.10;;;5.60;;
10657;SDS011;5377;43.276;26.930;2023-09-19T00:04:18;5.82;;;5.30;;
10657;SDS011;5377;43.276;26.930;2023-09-19T00:06:48;5.97;;;5.38;;
10657;SDS011;5377;43.276;26.930;2023-09-19T00:09:15;5.75;;;5.35;;
10657;SDS011;5377;43.276;26.930;2023-09-19T00:11:42;6.28;;;5.78;;
10657;SDS011;5377;43.276;26.930;2023-09-19T00:14:24;5.50;;;5.05;;
10657;SDS011;5377;43.276;26.930;2023-09-19T00:16:51;8.52;;;7.72;;
10657;SDS011;5377;43.276;26.930;2023-09-19T00:19:22;12.05;;;10.85;;
10657;SDS011;5377;43.276;26.930;2023-09-19T00:21:49;18.30;;;16.50;;
10657;SDS011;5377;43.276;26.930;2023-09-19T00:24:18;11.70;;;10.60;;
10657;SDS011;5377;43.276;26.930;2023-09-19T00:26:45;11.93;;;10.73;;
10657;SDS011;5377;43.276;26.930;2023-09-19T00:29:13;9.68;;;8.88;;
10657;SDS011;5377;43.276;26.930;2023-09-19T00:31:42;9.75;;;8.85;;
10657;SDS011;5377;43.276;26.930;2023-09-19T00:34:09;6.75;;;6.13;;
10657;SDS011;5377;43.276;26.930;2023-09-19T00:36:38;7.15;;;6.55;;
10657;SDS011;5377;43.276;26.930;2023-09-19T00:39:05;6.60;;;5.53;;
10657;SDS011;5377;43.276;26.930;2023-09-19T00:41:33;7.30;;;6.53;;
10657;SDS011;5377;43.276;26.930;2023-09-19T00:44:01;6.25;;;5.65;;
10657;SDS011;5377;43.276;26.930;2023-09-19T00:46:28;6.70;;;5.97;;
10657;SDS011;5377;43.276;26.930;2023-09-19T00:48:55;7.88;;;5.82;;
10657;SDS011;5377;43.276;26.930;2023-09-19T00:51:23;5.78;;;5.25;;
10657;SDS011;5377;43.276;26.930;2023-09-19T00:53:51;6.25;;;5.68;;
10657;SDS011;5377;43.276;26.930;2023-09-19T00:56:19;6.63;;;5.80;;
10657;SDS011;5377;43.276;26.930;2023-09-19T00:58:46;6.97;;;5.88;;
10657;SDS011;5377;43.276;26.930;2023-09-19T01:01:13;7.55;;;5.80;;
10657;SDS011;5377;43.276;26.930;2023-09-19T01:03:41;6.50;;;5.88;;
10657;SDS011;5377;43.276;26.930;2023-09-19T01:06:08;5.53;;;5.07;;
10657;SDS011;5377;43.276;26.930;2023-09-19T01:08:35;6.05;;;5.50;;
10657;SDS011;5377;43.276;26.930;2023-09-19T01:11:06;5.78;;;5.28;;
10657;SDS011;5377;43.276;26.930;2023-09-19T01:13:43;5.70;;;5.22;;
10657;SDS011;5377;43.276;26.930;2023-09-19T01:16:19;7.97;;;5.35;;
10657;SDS011;5377;43.276;26.930;2023-09-19T01:18:55;9.38;;;5.45;;
10657;SDS011;5377;43.276;26.930;2023-09-19T01:21:35;8.35;;;5.60;;
10657;SDS011;5377;43.276;26.930;2023-09-19T01:24:22;5.53;;;5.05;;
10657;SDS011;5377;43.276;26.930;2023-09-19T01:27:21;6.32;;;5.72;;
10657;SDS011;5377;43.276;26.930;2023-09-19T01:30:10;5.80;;;5.30;;
10657;SDS011;5377;43.276;26.930;2023-09-19T01:32:40;5.85;;;5.28;;
10657;SDS011;5377;43.276;26.930;2023-09-19T01:35:11;6.90;;;5.43;;
10657;SDS011;5377;43.276;26.930;2023-09-19T01:37:38;8.05;;;5.43;;
10657;SDS011;5377;43.276;26.930;2023-09-19T01:40:08;6.63;;;5.38;;
10657;SDS011;5377;43.276;26.930;2023-09-19T01:42:43;6.43;;;5.43;;
10657;SDS011;5377;43.276;26.930;2023-09-19T01:45:19;7.40;;;5.93;;
10657;SDS011;5377;43.276;26.930;2023-09-19T01:48:00;6.13;;;5.50;;
10657;SDS011;5377;43.276;26.930;2023-09-19T01:50:38;8.07;;;5.95;;
10657;SDS011;5377;43.276;26.930;2023-09-19T01:53:12;6.47;;;5.78;;
10657;SDS011;5377;43.276;26.930;2023-09-19T01:55:46;6.57;;;5.90;;
10657;SDS011;5377;43.276;26.930;2023-09-19T01:58:16;8.50;;;6.22;;
10657;SDS011;5377;43.276;26.930;2023-09-19T02:00:49;6.53;;;5.53;;
10657;SDS011;5377;43.276;26.930;2023-09-19T02:03:17;5.13;;;4.72;;
10657;SDS011;5377;43.276;26.930;2023-09-19T02:05:48;6.93;;;6.32;;
10657;SDS011;5377;43.276;26.930;2023-09-19T02:08:17;7.07;;;5.68;;
10657;SDS011;5377;43.276;26.930;2023-09-19T02:10:44;5.88;;;5.38;;
10657;SDS011;5377;43.276;26.930;2023-09-19T02:13:14;7.93;;;5.22;;
10657;SDS011;5377;43.276;26.930;2023-09-19T02:15:43;8.93;;;6.45;;
10657;SDS011;5377;43.276;26.930;2023-09-19T02:18:12;6.10;;;5.47;;
10657;SDS011;5377;43.276;26.930;2023-09-19T02:20:39;6.85;;;5.20;;
10657;SDS011;5377;43.276;26.930;2023-09-19T02:23:06;6.43;;;5.82;;
10657;SDS011;5377;43.276;26.930;2023-09-19T02:25:34;5.88;;;5.28;;
10657;SDS011;5377;43.276;26.930;2023-09-19T02:28:03;7.10;;;5.10;;
10657;SDS011;5377;43.276;26.930;2023-09-19T02:30:30;6.10;;;5.53;;
10657;SDS011;5377;43.276;26.930;2023-09-19T02:32:58;7.20;;;5.50;;
10657;SDS011;5377;43.276;26.930;2023-09-19T02:35:28;7.30;;;5.82;;
10657;SDS011;5377;43.276;26.930;2023-09-19T02:37:58;6.22;;;5.25;;
10657;SDS011;5377;43.276;26.930;2023-09-19T02:40:26;5.90;;;5.40;;
10657;SDS011;5377;43.276;26.930;2023-09-19T02:42:54;9.95;;;7.30;;
10657;SDS011;5377;43.276;26.930;2023-09-19T02:45:24;13.02;;;9.15;;
10657;SDS011;5377;43.276;26.930;2023-09-19T02:47:51;6.65;;;6.05;;
10657;SDS011;5377;43.276;26.930;2023-09-19T02:50:18;13.60;;;7.88;;
10657;SDS011;5377;43.276;26.930;2023-09-19T02:52:46;16.38;;;10.20;;
10657;SDS011;5377;43.276;26.930;2023-09-19T02:55:14;8.63;;;7.53;;
10657;SDS011;5377;43.276;26.930;2023-09-19T02:57:45;17.52;;;10.43;;
10657;SDS011;5377;43.276;26.930;2023-09-19T03:00:12;21.20;;;12.25;;
10657;SDS011;5377;43.276;26.930;2023-09-19T03:02:40;16.15;;;9.85;;
10657;SDS011;5377;43.276;26.930;2023-09-19T03:05:08;13.05;;;8.00;;
10657;SDS011;5377;43.276;26.930;2023-09-19T03:07:36;11.43;;;7.85;;
10657;SDS011;5377;43.276;26.930;2023-09-19T03:10:05;20.52;;;15.02;;
10657;SDS011;5377;43.276;26.930;2023-09-19T03:12:33;26.50;;;15.85;;
10657;SDS011;5377;43.276;26.930;2023-09-19T03:15:00;18.95;;;14.43;;
10657;SDS011;5377;43.276;26.930;2023-09-19T03:17:28;22.73;;;17.20;;
10657;SDS011;5377;43.276;26.930;2023-09-19T03:19:54;17.95;;;13.23;;
10657;SDS011;5377;43.276;26.930;2023-09-19T03:22:22;18.48;;;12.90;;
10657;SDS011;5377;43.276;26.930;2023-09-19T03:24:49;12.13;;;10.68;;
10657;SDS011;5377;43.276;26.930;2023-09-19T03:27:18;10.25;;;9.25;;
10657;SDS011;5377;43.276;26.930;2023-09-19T03:29:46;10.05;;;8.88;;
10657;SDS011;5377;43.276;26.930;2023-09-19T03:32:13;13.98;;;10.05;;
10657;SDS011;5377;43.276;26.930;2023-09-19T03:34:40;14.55;;;9.60;;
10657;SDS011;5377;43.276;26.930;2023-09-19T03:37:08;17.48;;;10.57;;
10657;SDS011;5377;43.276;26.930;2023-09-19T03:39:36;11.32;;;8.48;;
10657;SDS011;5377;43.276;26.930;2023-09-19T03:42:03;10.23;;;8.30;;
10657;SDS011;5377;43.276;26.930;2023-09-19T03:44:33;15.27;;;13.30;;
10657;SDS011;5377;43.276;26.930;2023-09-19T03:47:00;13.90;;;10.55;;
10657;SDS011;5377;43.276;26.930;2023-09-19T03:49:27;21.75;;;16.25;;
10657;SDS011;5377;43.276;26.930;2023-09-19T03:51:55;12.85;;;9.43;;
10657;SDS011;5377;43.276;26.930;2023-09-19T03:54:22;10.70;;;9.57;;
10657;SDS011;5377;43.276;26.930;2023-09-19T03:56:49;14.20;;;10.05;;
10657;SDS011;5377;43.276;26.930;2023-09-19T03:59:15;9.90;;;7.25;;
10657;SDS011;5377;43.276;26.930;2023-09-19T04:01:44;8.18;;;7.00;;
10657;SDS011;5377;43.276;26.930;2023-09-19T04:04:11;8.60;;;7.03;;
10657;SDS011;5377;43.276;26.930;2023-09-19T04:06:39;11.18;;;7.60;;
10657;SDS011;5377;43.276;26.930;2023-09-19T04:09:06;9.68;;;8.23;;
10657;SDS011;5377;43.276;26.930;2023-09-19T04:11:33;11.82;;;8.60;;
10657;SDS011;5377;43.276;26.930;2023-09-19T04:14:02;12.10;;;8.57;;
10657;SDS011;5377;43.276;26.930;2023-09-19T04:16:30;8.75;;;7.72;;
10657;SDS011;5377;43.276;26.930;2023-09-19T04:18:58;12.43;;;8.50;;
10657;SDS011;5377;43.276;26.930;2023-09-19T04:21:25;15.98;;;8.70;;
10657;SDS011;5377;43.276;26.930;2023-09-19T04:23:53;16.15;;;9.30;;
10657;SDS011;5377;43.276;26.930;2023-09-19T04:26:20;14.13;;;8.88;;
10657;SDS011;5377;43.276;26.930;2023-09-19T04:28:47;11.00;;;9.52;;
10657;SDS011;5377;43.276;26.930;2023-09-19T04:31:13;16.95;;;10.40;;
10657;SDS011;5377;43.276;26.930;2023-09-19T04:33:41;10.82;;;9.82;;
10657;SDS011;5377;43.276;26.930;2023-09-19T04:36:10;10.50;;;8.18;;
10657;SDS011;5377;43.276;26.930;2023-09-19T04:38:38;13.20;;;8.85;;
10657;SDS011;5377;43.276;26.930;2023-09-19T04:41:05;12.00;;;8.77;;
10657;SDS011;5377;43.276;26.930;2023-09-19T04:43:32;15.48;;;8.55;;
10657;SDS011;5377;43.276;26.930;2023-09-19T04:45:58;13.23;;;8.90;;
10657;SDS011;5377;43.276;26.930;2023-09-19T04:48:25;18.60;;;10.38;;
10657;SDS011;5377;43.276;26.930;2023-09-19T04:50:54;16.33;;;10.00;;
10657;SDS011;5377;43.276;26.930;2023-09-19T04:53:22;15.05;;;8.80;;
10657;SDS011;5377;43.276;26.930;2023-09-19T04:55:49;15.40;;;10.13;;
10657;SDS011;5377;43.276;26.930;2023-09-19T04:58:18;19.30;;;8.88;;
10657;SDS011;5377;43.276;26.930;2023-09-19T05:00:45;18.00;;;10.10;;
10657;SDS011;5377;43.276;26.930;2023-09-19T05:03:16;12.13;;;8.93;;
10657;SDS011;5377;43.276;26.930;2023-09-19T05:11:54;16.83;;;10.60;;
10657;SDS011;5377;43.276;26.930;2023-09-19T05:23:38;21.40;;;9.00;;
10657;SDS011;5377;43.276;26.930;2023-09-19T05:26:04;24.55;;;10.68;;
10657;SDS011;5377;43.276;26.930;2023-09-19T05:28:33;17.98;;;8.82;;
10657;SDS011;5377;43.276;26.930;2023-09-19T05:31:00;17.80;;;9.20;;
10657;SDS011;5377;43.276;26.930;2023-09-19T05:33:28;23.65;;;9.75;;
10657;SDS011;5377;43.276;26.930;2023-09-19T05:35:56;18.88;;;9.93;;
10657;SDS011;5377;43.276;26.930;2023-09-19T05:38:23;17.38;;;9.93;;
10657;SDS011;5377;43.276;26.930;2023-09-19T05:40:56;13.25;;;9.45;;
10657;SDS011;5377;43.276;26.930;2023-09-19T05:43:23;14.13;;;9.82;;
10657;SDS011;5377;43.276;26.930;2023-09-19T05:49:16;15.75;;;9.20;;
10657;SDS011;5377;43.276;26.930;2023-09-19T05:54:44;18.20;;;10.27;;
10657;SDS011;5377;43.276;26.930;2023-09-19T06:00:42;18.23;;;10.35;;
10657;SDS011;5377;43.276;26.930;2023-09-19T06:12:10;15.88;;;10.38;;
10657;SDS011;5377;43.276;26.930;2023-09-19T06:14:39;19.85;;;11.57;;
10657;SDS011;5377;43.276;26.930;2023-09-19T06:20:28;17.77;;;10.57;;
10657;SDS011;5377;43.276;26.930;2023-09-19T06:22:56;20.02;;;11.43;;
10657;SDS011;5377;43.276;26.930;2023-09-19T06:25:24;16.50;;;9.60;;
10657;SDS011;5377;43.276;26.930;2023-09-19T06:31:13;11.55;;;9.75;;
10657;SDS011;5377;43.276;26.930;2023-09-19T06:37:14;10.10;;;8.77;;
10657;SDS011;5377;43.276;26.930;2023-09-19T06:39:42;13.27;;;9.63;;
10657;SDS011;5377;43.276;26.930;2023-09-19T06:42:10;20.67;;;9.82;;
10657;SDS011;5377;43.276;26.930;2023-09-19T06:44:37;14.73;;;8.50;;
10657;SDS011;5377;43.276;26.930;2023-09-19T06:49:52;10.65;;;7.78;;
10657;SDS011;5377;43.276;26.930;2023-09-19T06:52:19;10.50;;;7.25;;
10657;SDS011;5377;43.276;26.930;2023-09-19T06:54:48;8.80;;;6.88;;
10657;SDS011;5377;43.276;26.930;2023-09-19T06:57:17;7.40;;;5.80;;
10657;SDS011;5377;43.276;26.930;2023-09-19T06:59:45;8.00;;;6.55;;
10657;SDS011;5377;43.276;26.930;2023-09-19T07:02:11;7.47;;;5.50;;
10657;SDS011;5377;43.276;26.930;2023-09-19T07:04:39;7.60;;;6.25;;
10657;SDS011;5377;43.276;26.930;2023-09-19T07:07:05;13.88;;;7.15;;
10657;SDS011;5377;43.276;26.930;2023-09-19T07:09:34;10.35;;;9.35;;
10657;SDS011;5377;43.276;26.930;2023-09-19T07:12:02;9.02;;;6.72;;
10657;SDS011;5377;43.276;26.930;2023-09-19T07:14:29;12.15;;;6.28;;
10657;SDS011;5377;43.276;26.930;2023-09-19T07:16:56;14.07;;;8.50;;
10657;SDS011;5377;43.276;26.930;2023-09-19T07:19:25;9.18;;;5.90;;
10657;SDS011;5377;43.276;26.930;2023-09-19T07:21:53;7.75;;;4.88;;
10657;SDS011;5377;43.276;26.930;2023-09-19T07:24:20;5.78;;;5.05;;
10657;SDS011;5377;43.276;26.930;2023-09-19T07:26:49;9.95;;;4.35;;
10657;SDS011;5377;43.276;26.930;2023-09-19T07:29:17;5.80;;;5.07;;
10657;SDS011;5377;43.276;26.930;2023-09-19T07:31:44;8.25;;;5.22;;
10657;SDS011;5377;43.276;26.930;2023-09-19T07:34:12;5.00;;;4.50;;
10657;SDS011;5377;43.276;26.930;2023-09-19T07:36:40;5.07;;;4.53;;
10657;SDS011;5377;43.276;26.930;2023-09-19T07:39:07;6.35;;;4.72;;
10657;SDS011;5377;43.276;26.930;2023-09-19T07:41:34;5.70;;;4.30;;
10657;SDS011;5377;43.276;26.930;2023-09-19T07:44:01;9.70;;;4.68;;
10657;SDS011;5377;43.276;26.930;2023-09-19T07:46:29;12.88;;;5.28;;
10657;SDS011;5377;43.276;26.930;2023-09-19T07:48:57;15.35;;;5.82;;
10657;SDS011;5377;43.276;26.930;2023-09-19T07:51:23;4.15;;;3.75;;
10657;SDS011;5377;43.276;26.930;2023-09-19T07:53:52;10.10;;;5.00;;
10657;SDS011;5377;43.276;26.930;2023-09-19T07:56:20;4.95;;;3.72;;
10657;SDS011;5377;43.276;26.930;2023-09-19T07:58:47;3.53;;;3.33;;
10657;SDS011;5377;43.276;26.930;2023-09-19T08:01:14;3.83;;;3.50;;
10657;SDS011;5377;43.276;26.930;2023-09-19T08:03:42;7.90;;;4.10;;
10657;SDS011;5377;43.276;26.930;2023-09-19T08:06:10;4.65;;;4.20;;
10657;SDS011;5377;43.276;26.930;2023-09-19T08:08:38;6.28;;;4.63;;
10657;SDS011;5377;43.276;26.930;2023-09-19T08:11:06;4.35;;;3.92;;
10657;SDS011;5377;43.276;26.930;2023-09-19T08:13:36;5.90;;;3.78;;
10657;SDS011;5377;43.276;26.930;2023-09-19T08:16:06;5.47;;;4.32;;
10657;SDS011;5377;43.276;26.930;2023-09-19T08:18:33;3.53;;;3.22;;
10657;SDS011;5377;43.276;26.930;2023-09-19T08:21:01;4.20;;;3.90;;
10657;SDS011;5377;43.276;26.930;2023-09-19T08:23:28;10.05;;;6.32;;
10657;SDS011;5377;43.276;26.930;2023-09-19T08:25:57;5.63;;;3.67;;
10657;SDS011;5377;43.276;26.930;2023-09-19T08:28:31;3.80;;;3.50;;
10657;SDS011;5377;43.276;26.930;2023-09-19T08:31:01;4.03;;;3.42;;
10657;SDS011;5377;43.276;26.930;2023-09-19T08:33:29;5.47;;;4.13;;
10657;SDS011;5377;43.276;26.930;2023-09-19T08:35:56;6.05;;;3.72;;
10657;SDS011;5377;43.276;26.930;2023-09-19T08:38:24;8.32;;;3.40;;
10657;SDS011;5377;43.276;26.930;2023-09-19T08:40:56;3.08;;;2.88;;
10657;SDS011;5377;43.276;26.930;2023-09-19T08:43:24;5.40;;;2.95;;
10657;SDS011;5377;43.276;26.930;2023-09-19T08:45:52;3.38;;;3.17;;
10657;SDS011;5377;43.276;26.930;2023-09-19T08:48:25;4.00;;;3.30;;
10657;SDS011;5377;43.276;26.930;2023-09-19T08:50:55;8.20;;;3.83;;
10657;SDS011;5377;43.276;26.930;2023-09-19T08:53:30;8.55;;;3.67;;
10657;SDS011;5377;43.276;26.930;2023-09-19T08:56:03;3.45;;;2.72;;
10657;SDS011;5377;43.276;26.930;2023-09-19T08:58:39;3.28;;;3.03;;
10657;SDS011;5377;43.276;26.930;2023-09-19T09:01:12;4.30;;;3.00;;
10657;SDS011;5377;43.276;26.930;2023-09-19T09:03:41;7.63;;;3.55;;
10657;SDS011;5377;43.276;26.930;2023-09-19T09:06:11;4.00;;;3.00;;
10657;SDS011;5377;43.276;26.930;2023-09-19T09:08:42;2.92;;;2.65;;
10657;SDS011;5377;43.276;26.930;2023-09-19T09:11:10;2.75;;;2.55;;
10657;SDS011;5377;43.276;26.930;2023-09-19T09:13:37;4.00;;;3.20;;
10657;SDS011;5377;43.276;26.930;2023-09-19T09:16:06;2.22;;;2.13;;
10657;SDS011;5377;43.276;26.930;2023-09-19T09:18:33;2.13;;;1.83;;
10657;SDS011;5377;43.276;26.930;2023-09-19T09:21:00;3.10;;;2.20;;
10657;SDS011;5377;43.276;26.930;2023-09-19T09:23:29;1.80;;;1.70;;
10657;SDS011;5377;43.276;26.930;2023-09-19T09:25:59;2.40;;;1.80;;
10657;SDS011;5377;43.276;26.930;2023-09-19T09:28:29;4.78;;;2.60;;
10657;SDS011;5377;43.276;26.930;2023-09-19T09:30:58;5.80;;;1.95;;
10657;SDS011;5377;43.276;26.930;2023-09-19T09:33:26;5.03;;;2.95;;
10657;SDS011;5377;43.276;26.930;2023-09-19T09:35:54;3.65;;;2.90;;
10657;SDS011;5377;43.276;26.930;2023-09-19T09:38:25;2.58;;;2.20;;
10657;SDS011;5377;43.276;26.930;2023-09-19T09:40:54;1.95;;;1.85;;
10657;SDS011;5377;43.276;26.930;2023-09-19T09:43:33;2.90;;;2.25;;
10657;SDS011;5377;43.276;26.930;2023-09-19T09:46:11;2.40;;;1.83;;
10657;SDS011;5377;43.276;26.930;2023-09-19T09:48:59;3.33;;;1.70;;
10657;SDS011;5377;43.276;26.930;2023-09-19T09:51:58;1.95;;;1.85;;
10657;SDS011;5377;43.276;26.930;2023-09-19T09:54:30;3.10;;;1.65;;
10657;SDS011;5377;43.276;26.930;2023-09-19T09:57:03;1.85;;;1.75;;
10657;SDS011;5377;43.276;26.930;2023-09-19T09:59:49;3.95;;;2.67;;
10657;SDS011;5377;43.276;26.930;2023-09-19T10:02:18;4.45;;;2.33;;
10657;SDS011;5377;43.276;26.930;2023-09-19T10:04:51;1.95;;;1.83;;
10657;SDS011;5377;43.276;26.930;2023-09-19T10:07:27;5.15;;;2.33;;
10657;SDS011;5377;43.276;26.930;2023-09-19T10:09:57;1.80;;;1.70;;
10657;SDS011;5377;43.276;26.930;2023-09-19T10:12:34;1.63;;;1.50;;
10657;SDS011;5377;43.276;26.930;2023-09-19T10:15:06;2.55;;;1.67;;
10657;SDS011;5377;43.276;26.930;2023-09-19T10:17:37;2.63;;;1.60;;
10657;SDS011;5377;43.276;26.930;2023-09-19T10:20:08;4.40;;;1.95;;
10657;SDS011;5377;43.276;26.930;2023-09-19T10:22:47;1.92;;;1.60;;
10657;SDS011;5377;43.276;26.930;2023-09-19T10:25:24;1.73;;;1.50;;
10657;SDS011;5377;43.276;26.930;2023-09-19T10:27:54;3.30;;;1.48;;
10657;SDS011;5377;43.276;26.930;2023-09-19T10:30:24;1.15;;;1.15;;
10657;SDS011;5377;43.276;26.930;2023-09-19T10:32:56;1.58;;;1.35;;
10657;SDS011;5377;43.276;26.930;2023-09-19T10:35:27;6.55;;;2.45;;
10657;SDS011;5377;43.276;26.930;2023-09-19T10:37:54;3.00;;;2.15;;
10657;SDS011;5377;43.276;26.930;2023-09-19T10:40:26;2.72;;;1.50;;
10657;SDS011;5377;43.276;26.930;2023-09-19T10:42:58;1.73;;;1.70;;
10657;SDS011;5377;43.276;26.930;2023-09-19T10:45:32;1.83;;;1.70;;
10657;SDS011;5377;43.276;26.930;2023-09-19T10:48:00;3.33;;;1.50;;
10657;SDS011;5377;43.276;26.930;2023-09-19T10:50:29;2.42;;;1.30;;
10657;SDS011;5377;43.276;26.930;2023-09-19T10:53:02;1.58;;;1.25;;
10657;SDS011;5377;43.276;26.930;2023-09-19T10:55:33;4.68;;;2.00;;
10657;SDS011;5377;43.276;26.930;2023-09-19T10:58:02;2.65;;;1.38;;
10657;SDS011;5377;43.276;26.930;2023-09-19T11:00:52;5.13;;;2.00;;
10657;SDS011;5377;43.276;26.930;2023-09-19T11:03:21;2.85;;;1.48;;
10657;SDS011;5377;43.276;26.930;2023-09-19T11:06:02;4.00;;;2.15;;
10657;SDS011;5377;43.276;26.930;2023-09-19T11:08:51;2.25;;;1.70;;
10657;SDS011;5377;43.276;26.930;2023-09-19T11:11:45;2.15;;;1.70;;
10657;SDS011;5377;43.276;26.930;2023-09-19T11:14:28;2.03;;;1.67;;
10657;SDS011;5377;43.276;26.930;2023-09-19T11:20:21;2.08;;;1.40;;
10657;SDS011;5377;43.276;26.930;2023-09-19T11:23:18;2.60;;;2.50;;
10657;SDS011;5377;43.276;26.930;2023-09-19T11:25:50;2.40;;;1.40;;
10657;SDS011;5377;43.276;26.930;2023-09-19T11:28:27;1.58;;;1.48;;
10657;SDS011;5377;43.276;26.930;2023-09-19T11:30:57;2.50;;;1.98;;
10657;SDS011;5377;43.276;26.930;2023-09-19T11:33:25;3.00;;;2.20;;
10657;SDS011;5377;43.276;26.930;2023-09-19T11:36:00;2.92;;;1.55;;
10657;SDS011;5377;43.276;26.930;2023-09-19T11:41:36;2.58;;;2.00;;
10657;SDS011;5377;43.276;26.930;2023-09-19T11:46:59;1.67;;;1.27;;
10657;SDS011;5377;43.276;26.930;2023-09-19T11:49:29;2.35;;;2.03;;
10657;SDS011;5377;43.276;26.930;2023-09-19T11:51:59;2.75;;;1.52;;
10657;SDS011;5377;43.276;26.930;2023-09-19T11:54:31;1.50;;;1.40;;
10657;SDS011;5377;43.276;26.930;2023-09-19T11:56:58;2.53;;;1.42;;
10657;SDS011;5377;43.276;26.930;2023-09-19T11:59:26;2.13;;;1.48;;
10657;SDS011;5377;43.276;26.930;2023-09-19T12:01:55;1.23;;;1.13;;
10657;SDS011;5377;43.276;26.930;2023-09-19T12:04:36;3.63;;;1.85;;
10657;SDS011;5377;43.276;26.930;2023-09-19T12:07:06;5.00;;;4.65;;
10657;SDS011;5377;43.276;26.930;2023-09-19T12:09:38;5.25;;;4.55;;
10657;SDS011;5377;43.276;26.930;2023-09-19T12:12:06;1.90;;;1.80;;
10657;SDS011;5377;43.276;26.930;2023-09-19T12:14:34;2.03;;;1.92;;
10657;SDS011;5377;43.276;26.930;2023-09-19T12:17:01;1.70;;;1.60;;
10657;SDS011;5377;43.276;26.930;2023-09-19T12:19:29;1.67;;;1.58;;
10657;SDS011;5377;43.276;26.930;2023-09-19T12:21:57;1.55;;;1.52;;
10657;SDS011;5377;43.276;26.930;2023-09-19T12:24:31;1.92;;;1.83;;
10657;SDS011;5377;43.276;26.930;2023-09-19T12:27:00;1.45;;;1.35;;
10657;SDS011;5377;43.276;26.930;2023-09-19T12:29:30;1.95;;;1.80;;
10657;SDS011;5377;43.276;26.930;2023-09-19T12:31:58;1.83;;;1.73;;
10657;SDS011;5377;43.276;26.930;2023-09-19T12:34:29;2.97;;;1.58;;
10657;SDS011;5377;43.276;26.930;2023-09-19T12:37:09;3.78;;;1.88;;
10657;SDS011;5377;43.276;26.930;2023-09-19T12:39:48;5.22;;;2.38;;
10657;SDS011;5377;43.276;26.930;2023-09-19T12:42:16;6.72;;;2.50;;
10657;SDS011;5377;43.276;26.930;2023-09-19T12:44:44;3.05;;;2.60;;
10657;SDS011;5377;43.276;26.930;2023-09-19T12:47:13;1.50;;;1.40;;
10657;SDS011;5377;43.276;26.930;2023-09-19T12:52:39;3.50;;;3.28;;
10657;SDS011;5377;43.276;26.930;2023-09-19T12:55:18;4.57;;;3.28;;
10657;SDS011;5377;43.276;26.930;2023-09-19T12:57:54;2.75;;;1.80;;
10657;SDS011;5377;43.276;26.930;2023-09-19T13:00:30;1.85;;;1.20;;
10657;SDS011;5377;43.276;26.930;2023-09-19T13:03:09;2.42;;;2.17;;
10657;SDS011;5377;43.276;26.930;2023-09-19T13:05:47;1.58;;;1.48;;
10657;SDS011;5377;43.276;26.930;2023-09-19T13:08:24;1.98;;;1.80;;
10657;SDS011;5377;43.276;26.930;2023-09-19T13:11:02;2.92;;;1.42;;
10657;SDS011;5377;43.276;26.930;2023-09-19T13:13:32;2.40;;;1.83;;
10657;SDS011;5377;43.276;26.930;2023-09-19T13:16:01;4.03;;;1.92;;
10657;SDS011;5377;43.276;26.930;2023-09-19T13:18:29;1.88;;;1.75;;
10657;SDS011;5377;43.276;26.930;2023-09-19T13:21:07;3.55;;;1.58;;
10657;SDS011;5377;43.276;26.930;2023-09-19T13:23:37;1.85;;;1.73;;
10657;SDS011;5377;43.276;26.930;2023-09-19T13:26:06;2.05;;;1.83;;
10657;SDS011;5377;43.276;26.930;2023-09-19T13:28:33;1.65;;;1.35;;
10657;SDS011;5377;43.276;26.930;2023-09-19T13:31:00;1.83;;;1.45;;
10657;SDS011;5377;43.276;26.930;2023-09-19T13:33:27;2.40;;;1.67;;
10657;SDS011;5377;43.276;26.930;2023-09-19T13:35:54;1.75;;;1.50;;
10657;SDS011;5377;43.276;26.930;2023-09-19T13:38:22;2.10;;;1.90;;
10657;SDS011;5377;43.276;26.930;2023-09-19T13:40:48;4.90;;;2.17;;
10657;SDS011;5377;43.276;26.930;2023-09-19T13:43:19;3.95;;;2.15;;
10657;SDS011;5377;43.276;26.930;2023-09-19T13:45:47;3.83;;;1.63;;
10657;SDS011;5377;43.276;26.930;2023-09-19T13:48:15;11.70;;;3.40;;
10657;SDS011;5377;43.276;26.930;2023-09-19T13:50:44;7.60;;;2.05;;
10657;SDS011;5377;43.276;26.930;2023-09-19T13:53:12;4.38;;;2.67;;
10657;SDS011;5377;43.276;26.930;2023-09-19T13:55:38;6.47;;;3.20;;
10657;SDS011;5377;43.276;26.930;2023-09-19T13:58:06;6.38;;;2.67;;
10657;SDS011;5377;43.276;26.930;2023-09-19T14:00:37;6.00;;;1.83;;
10657;SDS011;5377;43.276;26.930;2023-09-19T14:03:04;1.90;;;1.80;;
10657;SDS011;5377;43.276;26.930;2023-09-19T14:05:31;3.33;;;1.73;;
10657;SDS011;5377;43.276;26.930;2023-09-19T14:07:58;2.65;;;1.90;;
10657;SDS011;5377;43.276;26.930;2023-09-19T14:10:26;2.15;;;2.03;;
10657;SDS011;5377;43.276;26.930;2023-09-19T14:12:55;1.45;;;1.35;;
10657;SDS011;5377;43.276;26.930;2023-09-19T14:15:22;2.70;;;2.15;;
10657;SDS011;5377;43.276;26.930;2023-09-19T14:17:55;5.95;;;2.50;;
10657;SDS011;5377;43.276;26.930;2023-09-19T14:20:24;3.20;;;1.80;;
10657;SDS011;5377;43.276;26.930;2023-09-19T14:22:51;4.78;;;1.95;;
10657;SDS011;5377;43.276;26.930;2023-09-19T14:25:18;2.30;;;2.20;;
10657;SDS011;5377;43.276;26.930;2023-09-19T14:27:46;4.95;;;3.63;;
10657;SDS011;5377;43.276;26.930;2023-09-19T14:30:13;3.03;;;2.60;;
10657;SDS011;5377;43.276;26.930;2023-09-19T14:32:40;8.20;;;2.60;;
10657;SDS011;5377;43.276;26.930;2023-09-19T14:35:08;3.83;;;2.42;;
10657;SDS011;5377;43.276;26.930;2023-09-19T14:37:36;2.17;;;1.90;;
10657;SDS011;5377;43.276;26.930;2023-09-19T14:40:04;2.97;;;2.72;;
10657;SDS011;5377;43.276;26.930;2023-09-19T14:42:34;3.58;;;2.70;;
10657;SDS011;5377;43.276;26.930;2023-09-19T14:45:03;3.88;;;2.17;;
10657;SDS011;5377;43.276;26.930;2023-09-19T14:47:31;3.67;;;2.30;;
10657;SDS011;5377;43.276;26.930;2023-09-19T14:49:59;4.05;;;2.67;;
10657;SDS011;5377;43.276;26.930;2023-09-19T14:52:27;3.58;;;2.15;;
10657;SDS011;5377;43.276;26.930;2023-09-19T14:54:54;4.32;;;2.58;;
10657;SDS011;5377;43.276;26.930;2023-09-19T14:57:21;2.80;;;2.60;;
10657;SDS011;5377;43.276;26.930;2023-09-19T14:59:49;4.80;;;2.33;;
10657;SDS011;5377;43.276;26.930;2023-09-19T15:02:17;5.38;;;2.47;;
10657;SDS011;5377;43.276;26.930;2023-09-19T15:04:44;5.30;;;2.00;;
10657;SDS011;5377;43.276;26.930;2023-09-19T15:07:12;4.88;;;2.90;;
10657;SDS011;5377;43.276;26.930;2023-09-19T15:09:41;3.30;;;3.00;;
10657;SDS011;5377;43.276;26.930;2023-09-19T15:12:08;7.63;;;2.92;;
10657;SDS011;5377;43.276;26.930;2023-09-19T15:14:39;10.30;;;3.40;;
10657;SDS011;5377;43.276;26.930;2023-09-19T15:17:06;5.43;;;2.28;;
10657;SDS011;5377;43.276;26.930;2023-09-19T15:19:33;4.80;;;2.13;;
10657;SDS011;5377;43.276;26.930;2023-09-19T15:22:00;5.18;;;3.20;;
10657;SDS011;5377;43.276;26.930;2023-09-19T15:24:27;6.90;;;4.47;;
10657;SDS011;5377;43.276;26.930;2023-09-19T15:26:56;3.80;;;2.95;;
10657;SDS011;5377;43.276;26.930;2023-09-19T15:29:23;5.78;;;3.13;;
10657;SDS011;5377;43.276;26.930;2023-09-19T15:31:49;7.72;;;2.25;;
10657;SDS011;5377;43.276;26.930;2023-09-19T15:34:16;3.90;;;1.83;;
10657;SDS011;5377;43.276;26.930;2023-09-19T15:36:43;6.07;;;2.90;;
10657;SDS011;5377;43.276;26.930;2023-09-19T15:39:11;3.10;;;2.83;;
10657;SDS011;5377;43.276;26.930;2023-09-19T15:41:40;8.13;;;3.10;;
10657;SDS011;5377;43.276;26.930;2023-09-19T15:44:14;6.85;;;2.75;;
10657;SDS011;5377;43.276;26.930;2023-09-19T15:46:42;4.72;;;2.50;;
10657;SDS011;5377;43.276;26.930;2023-09-19T15:49:10;3.13;;;2.75;;
10657;SDS011;5377;43.276;26.930;2023-09-19T15:51:37;7.18;;;3.50;;
10657;SDS011;5377;43.276;26.930;2023-09-19T15:54:07;6.68;;;3.40;;
10657;SDS011;5377;43.276;26.930;2023-09-19T15:56:35;6.22;;;3.40;;
10657;SDS011;5377;43.276;26.930;2023-09-19T15:59:02;10.23;;;3.92;;